Time;durP1;ratioP1;P1;durP2;ratioP2;P2;SDS_P1;SDS_P2;PMS_P1;PMS_P2;Temp;Humidity;BMP_temperature;BMP_pressure;BME280_temperature;BME280_humidity;BME280_pressure;Samples;Min_cycle;Max_cycle;Signal;HPM_P1;HPM_P2
2022/11/13 00:02:19;;;;;;;51.90;47.50;;;4.80;99.90;;;;;;4934988;29;20463;-76
2022/11/13 00:04:46;;;;;;;51.77;47.10;;;4.70;99.90;;;;;;4934560;29;20493;-76
2022/11/13 00:07:14;;;;;;;56.70;50.60;;;4.70;99.90;;;;;;4934524;29;20817;-77
2022/11/13 00:09:41;;;;;;;59.57;53.53;;;4.60;99.90;;;;;;4934735;29;20830;-77
2022/11/13 00:12:08;;;;;;;55.37;50.20;;;4.70;99.90;;;;;;4934485;29;20481;-77
2022/11/13 00:14:34;;;;;;;66.33;53.57;;;4.60;99.90;;;;;;4934476;29;20446;-76
2022/11/13 00:17:01;;;;;;;71.37;52.63;;;4.60;99.90;;;;;;4934291;29;20465;-76
2022/11/13 00:19:28;;;;;;;69.73;52.80;;;4.60;99.90;;;;;;4933352;29;20446;-75
2022/11/13 00:21:56;;;;;;;93.93;54.20;;;4.60;99.90;;;;;;4934402;29;20817;-76
2022/11/13 00:24:24;;;;;;;78.43;55.03;;;4.60;99.90;;;;;;4934306;29;20491;-75
2022/11/13 00:26:51;;;;;;;76.57;50.27;;;4.60;99.90;;;;;;4935911;29;21028;-77
2022/11/13 00:29:18;;;;;;;90.00;52.30;;;4.60;99.90;;;;;;4935139;29;21003;-78
2022/11/13 00:31:47;;;;;;;79.37;51.23;;;4.50;99.90;;;;;;4935177;29;20465;-77
2022/11/13 00:34:14;;;;;;;103.23;54.00;;;4.50;99.90;;;;;;4934135;29;20455;-78
2022/11/13 00:36:41;;;;;;;107.47;54.83;;;4.50;99.90;;;;;;4934154;29;20460;-78
2022/11/13 00:39:08;;;;;;;82.73;54.10;;;4.50;99.90;;;;;;4934113;29;20464;-78
2022/11/13 00:41:36;;;;;;;126.77;59.07;;;4.50;99.90;;;;;;4933944;29;20960;-78
2022/11/13 00:44:03;;;;;;;93.77;51.77;;;4.60;99.90;;;;;;4933713;29;20447;-77
2022/11/13 00:46:30;;;;;;;81.90;51.50;;;4.60;99.90;;;;;;4933978;29;20806;-78
2022/11/13 00:48:57;;;;;;;92.43;54.37;;;4.60;99.90;;;;;;4933955;29;20461;-79
2022/11/13 00:51:24;;;;;;;142.73;56.23;;;4.60;99.90;;;;;;4934015;29;20468;-79
2022/11/13 00:53:50;;;;;;;67.93;50.37;;;4.60;99.90;;;;;;4933849;29;20461;-80
2022/11/13 00:56:17;;;;;;;128.77;57.03;;;4.70;99.90;;;;;;4933714;29;20855;-79
2022/11/13 00:58:45;;;;;;;80.67;51.67;;;4.60;99.90;;;;;;4933484;29;20465;-76
2022/11/13 01:01:15;;;;;;;149.00;54.97;;;4.50;99.90;;;;;;4933611;29;20488;-76
2022/11/13 01:03:42;;;;;;;129.07;57.83;;;4.50;99.90;;;;;;4933756;29;20455;-77
2022/11/13 01:06:14;;;;;;;158.73;55.40;;;4.50;99.90;;;;;;4933669;29;20497;-76
2022/11/13 01:08:41;;;;;;;121.70;57.07;;;4.50;99.90;;;;;;4933838;29;20455;-76
2022/11/13 01:11:09;;;;;;;90.27;52.03;;;4.50;99.90;;;;;;4933615;29;20452;-76
2022/11/13 01:13:36;;;;;;;115.07;52.73;;;4.40;99.90;;;;;;4933334;29;20481;-77
2022/11/13 01:16:07;;;;;;;94.43;54.50;;;4.40;99.90;;;;;;4933354;29;20537;-77
2022/11/13 01:18:35;;;;;;;63.10;51.23;;;4.40;99.90;;;;;;4933781;29;20951;-78
2022/11/13 01:21:03;;;;;;;58.80;50.10;;;4.40;99.90;;;;;;4933482;29;20501;-76
2022/11/13 01:23:30;;;;;;;72.53;52.57;;;4.50;99.90;;;;;;4933243;29;20456;-76
2022/11/13 01:26:05;;;;;;;144.23;55.27;;;4.30;99.90;;;;;;4933212;29;20495;-78
2022/11/13 01:28:32;;;;;;;73.33;51.30;;;4.30;99.90;;;;;;4933163;29;20876;-77
2022/11/13 01:30:59;;;;;;;120.23;54.83;;;;;;;;;;4932974;29;20460;-80
2022/11/13 01:33:27;;;;;;;59.67;51.17;;;4.30;99.90;;;;;;4933843;29;20452;-79
2022/11/13 01:36:00;;;;;;;71.27;50.07;;;4.30;99.90;;;;;;4933436;29;20451;-80
2022/11/13 01:38:26;;;;;;;69.50;49.37;;;4.30;99.90;;;;;;4933514;29;20456;-80
2022/11/13 01:40:53;;;;;;;71.20;52.60;;;4.30;99.90;;;;;;4933545;29;20458;-81
2022/11/13 01:43:24;;;;;;;56.67;50.40;;;4.20;99.90;;;;;;4933274;29;20459;-80
2022/11/13 01:46:22;;;;;;;57.13;48.63;;;4.20;99.90;;;;;;4933305;29;20512;-80
2022/11/13 01:48:54;;;;;;;52.47;47.37;;;4.10;99.90;;;;;;4933404;29;20445;-80
2022/11/13 01:51:26;;;;;;;55.33;50.10;;;4.10;99.90;;;;;;4933142;29;20463;-80
2022/11/13 01:53:53;;;;;;;53.20;47.47;;;4.10;99.90;;;;;;4933345;29;20510;-81
2022/11/13 01:56:21;;;;;;;54.47;49.47;;;4.10;99.90;;;;;;4933074;29;20456;-81
2022/11/13 01:58:53;;;;;;;50.50;46.10;;;4.10;99.90;;;;;;4932928;29;20449;-80
2022/11/13 02:01:20;;;;;;;50.77;46.37;;;4.10;99.90;;;;;;4932952;29;20481;-77
2022/11/13 02:03:47;;;;;;;55.30;49.03;;;4.10;99.90;;;;;;4932909;29;20455;-76
2022/11/13 02:06:15;;;;;;;53.17;48.40;;;4.10;99.90;;;;;;4932891;29;20493;-76
2022/11/13 02:08:44;;;;;;;52.30;47.47;;;4.20;99.90;;;;;;4933796;29;20799;-76
2022/11/13 02:11:11;;;;;;;55.47;49.97;;;4.30;99.90;;;;;;4937264;29;20455;-76
2022/11/13 02:13:39;;;;;;;51.73;47.40;;;4.20;99.90;;;;;;4935516;29;20485;-77
2022/11/13 02:16:10;;;;;;;53.80;48.10;;;4.20;99.90;;;;;;4934203;29;20451;-77
2022/11/13 02:18:38;;;;;;;86.83;49.93;;;4.20;99.90;;;;;;4933835;29;20468;-76
2022/11/13 02:21:15;;;;;;;63.57;49.23;;;4.30;99.90;;;;;;4933494;29;20542;-78
2022/11/13 02:23:48;;;;;;;56.80;50.97;;;4.30;99.90;;;;;;4933111;29;20453;-78
2022/11/13 02:26:19;;;;;;;57.60;48.43;;;4.20;99.90;;;;;;4932693;29;20520;-78
2022/11/13 02:28:46;;;;;;;57.30;51.23;;;4.20;99.90;;;;;;4932773;29;20458;-78
2022/11/13 02:31:14;;;;;;;80.90;49.27;;;4.10;99.90;;;;;;4932786;29;20517;-77
2022/11/13 02:33:41;;;;;;;66.67;50.37;;;4.20;99.90;;;;;;4932827;29;20450;-78
2022/11/13 02:36:10;;;;;;;62.63;45.27;;;4.10;99.90;;;;;;4933131;29;21005;-77
2022/11/13 02:38:40;;;;;;;68.17;51.60;;;4.20;99.90;;;;;;4933032;29;20814;-78
2022/11/13 02:41:06;;;;;;;65.07;48.70;;;4.10;99.90;;;;;;4932800;29;20449;-77
2022/11/13 02:43:34;;;;;;;62.27;48.77;;;4.20;99.90;;;;;;4934301;29;20477;-78
2022/11/13 02:46:01;;;;;;;55.00;45.03;;;4.20;99.90;;;;;;4935780;29;20819;-78
2022/11/13 02:48:28;;;;;;;79.33;50.40;;;4.20;99.90;;;;;;4935979;29;20468;-78
2022/11/13 02:50:55;;;;;;;90.23;48.87;;;4.10;99.90;;;;;;4937722;29;20959;-80
2022/11/13 02:53:21;;;;;;;72.67;48.73;;;4.10;99.90;;;;;;4938078;29;20461;-80
2022/11/13 02:55:48;;;;;;;121.83;50.07;;;4.10;99.90;;;;;;4935956;29;20453;-79
2022/11/13 02:58:15;;;;;;;84.30;49.43;;;4.10;99.90;;;;;;4935730;29;20452;-79
2022/11/13 03:00:43;;;;;;;72.23;49.47;;;4.10;99.90;;;;;;4935759;29;20466;-78
2022/11/13 03:03:10;;;;;;;81.80;51.97;;;4.00;99.90;;;;;;4935978;29;20453;-79
2022/11/13 03:05:36;;;;;;;93.23;50.83;;;4.00;99.90;;;;;;4935802;29;20496;-79
2022/11/13 03:08:04;;;;;;;79.40;47.43;;;4.00;99.90;;;;;;4935766;29;20815;-78
2022/11/13 03:10:30;;;;;;;79.37;49.77;;;3.80;99.90;;;;;;4935568;29;20453;-78
2022/11/13 03:12:58;;;;;;;93.67;50.17;;;3.90;99.90;;;;;;4935488;29;20485;-78
2022/11/13 03:15:25;;;;;;;81.83;49.70;;;3.90;99.90;;;;;;4935759;29;20817;-81
2022/11/13 03:17:53;;;;;;;82.23;50.23;;;3.90;99.90;;;;;;4935686;29;20462;-78
2022/11/13 03:20:20;;;;;;;71.47;45.17;;;4.00;99.90;;;;;;4935414;29;20456;-77
2022/11/13 03:22:47;;;;;;;60.00;44.93;;;3.80;99.90;;;;;;4935309;29;20460;-77
2022/11/13 03:25:13;;;;;;;81.27;46.50;;;3.80;99.90;;;;;;4935368;29;20493;-78
2022/11/13 03:27:40;;;;;;;55.70;44.60;;;3.60;99.90;;;;;;4935396;29;20459;-77
2022/11/13 03:30:08;;;;;;;91.47;48.93;;;3.50;99.90;;;;;;4935497;29;20446;-78
2022/11/13 03:32:35;;;;;;;59.67;44.40;;;3.50;99.90;;;;;;4935227;29;20458;-77
2022/11/13 03:35:03;;;;;;;49.27;44.47;;;3.50;99.90;;;;;;4935137;29;20458;-73
2022/11/13 03:37:30;;;;;;;66.30;46.63;;;3.50;99.90;;;;;;4935171;29;20455;-73
2022/11/13 03:39:57;;;;;;;58.40;46.97;;;3.70;99.90;;;;;;4935187;29;20454;-73
2022/11/13 03:42:23;;;;;;;98.03;49.23;;;3.70;99.90;;;;;;4935154;29;20450;-74
2022/11/13 03:44:50;;;;;;;136.13;50.87;;;3.80;99.90;;;;;;4934934;29;20459;-72
2022/11/13 03:47:17;;;;;;;92.47;48.50;;;3.70;99.90;;;;;;4934679;29;20489;-72
2022/11/13 03:49:43;;;;;;;103.93;49.83;;;3.70;99.90;;;;;;4934789;29;20453;-72
2022/11/13 03:52:12;;;;;;;210.23;55.70;;;3.80;99.90;;;;;;4935045;29;20462;-72
2022/11/13 03:54:39;;;;;;;109.10;49.93;;;3.90;99.90;;;;;;4934868;29;20458;-74
2022/11/13 03:57:05;;;;;;;81.10;50.47;;;3.90;99.90;;;;;;4934850;29;20535;-74
2022/11/13 03:59:32;;;;;;;137.97;52.20;;;4.00;99.90;;;;;;4934663;29;20461;-73
2022/11/13 04:01:59;;;;;;;73.60;47.77;;;4.00;99.90;;;;;;4934566;29;20484;-73
2022/11/13 04:04:25;;;;;;;65.03;46.40;;;4.00;99.90;;;;;;4934801;29;20962;-73
2022/11/13 04:06:52;;;;;;;65.73;45.57;;;3.90;99.90;;;;;;4934652;29;20491;-73
2022/11/13 04:09:20;;;;;;;48.50;42.87;;;3.80;99.90;;;;;;4934642;29;20457;-73
2022/11/13 04:11:47;;;;;;;76.43;45.83;;;3.90;99.90;;;;;;4934278;29;20451;-74
2022/11/13 04:14:14;;;;;;;67.13;44.80;;;3.90;99.90;;;;;;4934410;29;20452;-74
2022/11/13 04:16:40;;;;;;;64.23;44.80;;;3.90;99.90;;;;;;4934643;29;20456;-72
2022/11/13 04:19:07;;;;;;;45.60;42.20;;;3.90;99.90;;;;;;4934467;29;20467;-75
2022/11/13 04:21:34;;;;;;;62.67;44.80;;;3.90;99.90;;;;;;4934379;29;20454;-75
2022/11/13 04:24:01;;;;;;;74.50;47.30;;;4.00;99.90;;;;;;4934212;29;20559;-74
2022/11/13 04:26:29;;;;;;;70.77;46.67;;;4.00;99.90;;;;;;4934233;29;20487;-74
2022/11/13 04:28:55;;;;;;;70.93;46.07;;;4.00;99.90;;;;;;4934430;29;20457;-73
2022/11/13 04:31:22;;;;;;;59.03;48.27;;;4.10;99.90;;;;;;4934355;29;20477;-74
2022/11/13 04:33:49;;;;;;;57.30;46.47;;;4.00;99.90;;;;;;4934049;29;20462;-74
2022/11/13 04:36:15;;;;;;;63.80;45.37;;;3.90;99.90;;;;;;4933839;29;20456;-74
2022/11/13 04:38:42;;;;;;;58.77;46.67;;;4.00;99.90;;;;;;4934137;29;20449;-74
2022/11/13 04:43:57;;;;;;;73.63;47.67;;;4.10;99.90;;;;;;4953290;29;20520;-74
2022/11/13 04:46:24;;;;;;;71.73;47.30;;;4.00;99.90;;;;;;4953027;29;20494;-74
2022/11/13 04:48:51;;;;;;;51.67;44.87;;;4.00;99.90;;;;;;4953024;29;20534;-74
2022/11/13 04:51:17;;;;;;;67.20;45.60;;;4.10;99.90;;;;;;4952854;29;20461;-74
2022/11/13 04:53:44;;;;;;;80.53;44.67;;;4.10;99.90;;;;;;4952739;29;20515;-75
2022/11/13 04:56:11;;;;;;;53.80;45.80;;;4.00;99.90;;;;;;4952990;29;20444;-74
2022/11/13 04:58:38;;;;;;;51.30;45.70;;;4.10;99.90;;;;;;4952996;29;20452;-74
2022/11/13 05:01:06;;;;;;;70.70;46.10;;;4.10;99.90;;;;;;4952702;29;20469;-74
2022/11/13 05:03:32;;;;;;;62.40;45.93;;;4.10;99.90;;;;;;4952714;29;20457;-74
2022/11/13 05:06:04;;;;;;;50.77;45.63;;;4.20;99.90;;;;;;4952054;28;20485;-73
2022/11/13 05:08:31;;;;;;;54.53;46.30;;;4.30;99.90;;;;;;4952538;29;20452;-73
2022/11/13 05:10:58;;;;;;;62.63;47.47;;;4.30;99.90;;;;;;4952702;29;20459;-73
2022/11/13 05:13:25;;;;;;;50.43;45.47;;;4.30;99.90;;;;;;4952492;29;20486;-73
2022/11/13 05:15:59;;;;;;;71.87;45.80;;;4.40;99.90;;;;;;4952571;29;20456;-73
2022/11/13 05:18:27;;;;;;;77.00;47.80;;;4.50;99.90;;;;;;4952653;29;20455;-74
2022/11/13 05:20:54;;;;;;;75.40;49.00;;;4.60;99.90;;;;;;4952606;29;20456;-74
2022/11/13 05:23:21;;;;;;;115.27;50.47;;;4.50;99.90;;;;;;4952386;29;20448;-74
2022/11/13 05:25:47;;;;;;;82.50;45.80;;;4.20;99.90;;;;;;4952258;29;20485;-73
2022/11/13 05:28:14;;;;;;;75.73;46.70;;;4.20;99.90;;;;;;4952265;29;20449;-72
2022/11/13 05:30:41;;;;;;;54.93;45.57;;;4.20;99.90;;;;;;4952736;29;20448;-73
2022/11/13 05:33:08;;;;;;;80.40;47.60;;;4.30;99.90;;;;;;4952531;29;20457;-73
2022/11/13 05:35:36;;;;;;;65.87;47.40;;;4.20;99.90;;;;;;4952324;29;20452;-73
2022/11/13 05:38:03;;;;;;;102.30;52.83;;;4.10;99.90;;;;;;4952221;29;20511;-73
2022/11/13 05:40:30;;;;;;;65.73;47.27;;;4.20;99.90;;;;;;4952102;29;20473;-74
2022/11/13 05:42:56;;;;;;;47.57;43.23;;;4.20;99.90;;;;;;4952282;29;20449;-73
2022/11/13 05:45:23;;;;;;;82.30;47.07;;;4.30;99.90;;;;;;4952374;29;20461;-73
2022/11/13 05:47:50;;;;;;;87.63;46.10;;;4.30;99.90;;;;;;4952116;29;20487;-73
2022/11/13 05:50:19;;;;;;;68.93;48.40;;;4.50;99.90;;;;;;4952109;29;20739;-73
2022/11/13 05:52:47;;;;;;;50.23;45.47;;;4.50;99.90;;;;;;4952071;29;20445;-73
2022/11/13 05:55:14;;;;;;;49.03;44.80;;;4.60;99.90;;;;;;4952094;29;20453;-73
2022/11/13 05:57:41;;;;;;;50.63;45.13;;;4.70;99.90;;;;;;4952093;29;20777;-73
2022/11/13 06:00:09;;;;;;;51.37;45.60;;;4.50;99.90;;;;;;4952089;29;20468;-75
2022/11/13 06:02:36;;;;;;;54.00;48.20;;;4.60;99.90;;;;;;4952107;29;20453;-73
2022/11/13 06:05:02;;;;;;;51.23;46.83;;;4.60;99.90;;;;;;4952126;29;20828;-73
2022/11/13 06:07:29;;;;;;;73.17;49.33;;;4.80;99.90;;;;;;4951676;29;20972;-73
2022/11/13 06:09:57;;;;;;;54.53;48.37;;;4.70;99.90;;;;;;4951635;29;20880;-73
2022/11/13 06:12:24;;;;;;;54.60;49.90;;;4.70;99.90;;;;;;4951393;29;20489;-74
2022/11/13 06:14:50;;;;;;;52.70;47.30;;;4.70;99.90;;;;;;4951987;29;20455;-73
2022/11/13 06:17:17;;;;;;;48.77;44.50;;;4.70;99.90;;;;;;4949838;28;20456;-74
2022/11/13 06:19:44;;;;;;;52.10;46.87;;;4.80;99.90;;;;;;4955196;29;20460;-74
2022/11/13 06:22:11;;;;;;;54.13;48.80;;;4.80;99.90;;;;;;4955605;29;20458;-74
2022/11/13 06:24:37;;;;;;;54.83;47.93;;;4.80;99.90;;;;;;4955552;29;20455;-73
2022/11/13 06:27:05;;;;;;;52.37;47.00;;;4.70;99.90;;;;;;4955206;29;20492;-73
2022/11/13 06:29:32;;;;;;;52.77;47.60;;;4.50;99.90;;;;;;4955080;29;20470;-73
2022/11/13 06:31:59;;;;;;;53.43;48.20;;;4.70;99.90;;;;;;4955252;29;20832;-73
2022/11/13 06:34:25;;;;;;;52.17;47.30;;;4.50;99.90;;;;;;4955590;29;20456;-73
2022/11/13 06:36:52;;;;;;;58.00;47.50;;;4.50;99.90;;;;;;4955340;29;20456;-73
2022/11/13 06:39:19;;;;;;;54.00;48.40;;;4.40;99.90;;;;;;4955174;29;20451;-73
2022/11/13 06:41:46;;;;;;;51.63;46.73;;;4.40;99.90;;;;;;4955025;29;20461;-73
2022/11/13 06:44:14;;;;;;;52.20;47.70;;;4.40;99.90;;;;;;4955117;29;20921;-72
2022/11/13 06:46:40;;;;;;;47.90;43.83;;;4.40;99.90;;;;;;4955189;29;20499;-73
2022/11/13 06:49:07;;;;;;;50.93;46.53;;;4.40;99.90;;;;;;4955164;29;20456;-73
2022/11/13 06:51:34;;;;;;;65.97;49.60;;;4.40;99.90;;;;;;4954904;29;20458;-73
2022/11/13 06:54:01;;;;;;;50.37;45.77;;;4.30;99.90;;;;;;4954827;29;20446;-74
2022/11/13 06:56:28;;;;;;;52.17;47.77;;;4.30;99.90;;;;;;4954507;29;20868;-73
2022/11/13 06:58:55;;;;;;;51.37;47.03;;;4.10;99.90;;;;;;4955053;29;20480;-72
2022/11/13 07:01:25;;;;;;;50.47;45.77;;;4.10;99.90;;;;;;4954857;29;20687;-73
2022/11/13 07:03:52;;;;;;;64.67;48.37;;;4.20;99.90;;;;;;4955530;29;20455;-73
2022/11/13 07:06:21;;;;;;;53.23;46.23;;;4.20;99.90;;;;;;4954516;29;20841;-73
2022/11/13 07:08:50;;;;;;;50.03;45.63;;;4.30;99.90;;;;;;4954832;29;20673;-73
2022/11/13 07:11:19;;;;;;;49.00;44.90;;;4.40;99.90;;;;;;4954710;29;20964;-72
2022/11/13 07:13:46;;;;;;;48.33;44.57;;;4.40;99.90;;;;;;4954434;29;20477;-74
2022/11/13 07:16:14;;;;;;;49.90;45.30;;;4.30;99.90;;;;;;4954556;29;20461;-75
2022/11/13 07:18:42;;;;;;;50.53;45.93;;;4.30;99.90;;;;;;4954875;29;20452;-74
2022/11/13 07:21:10;;;;;;;49.23;45.03;;;4.50;99.90;;;;;;4954660;29;20539;-74
2022/11/13 07:23:41;;;;;;;49.77;44.73;;;4.40;99.90;;;;;;4954509;29;20515;-73
2022/11/13 07:26:08;;;;;;;67.67;49.30;;;4.50;99.90;;;;;;4954317;29;20444;-72
2022/11/13 07:28:35;;;;;;;54.03;48.87;;;4.40;99.90;;;;;;4953810;28;20892;-74
2022/11/13 07:31:02;;;;;;;52.30;47.57;;;4.30;99.90;;;;;;4954226;29;20454;-73
2022/11/13 07:33:29;;;;;;;51.00;47.00;;;4.40;99.90;;;;;;4954188;29;20443;-75
2022/11/13 07:35:57;;;;;;;50.80;45.60;;;4.60;99.90;;;;;;4954357;29;20492;-74
2022/11/13 07:38:24;;;;;;;66.77;46.90;;;4.60;99.90;;;;;;4954460;29;20452;-74
2022/11/13 07:40:51;;;;;;;51.30;46.03;;;4.50;99.90;;;;;;4954010;29;20977;-74
2022/11/13 07:43:20;;;;;;;50.73;46.70;;;4.50;99.90;;;;;;4955058;29;20976;-73
2022/11/13 07:45:53;;;;;;;51.70;46.30;;;4.50;99.90;;;;;;4956354;29;20529;-73
2022/11/13 07:48:20;;;;;;;49.17;44.87;;;4.70;99.90;;;;;;4953782;29;20492;-73
2022/11/13 07:50:47;;;;;;;49.57;44.73;;;4.40;99.90;;;;;;4953770;29;21010;-73
2022/11/13 07:53:15;;;;;;;53.60;43.63;;;4.40;99.90;;;;;;4953967;29;20459;-75
2022/11/13 07:55:42;;;;;;;48.50;44.00;;;4.40;99.90;;;;;;4953780;29;20771;-73
2022/11/13 07:58:09;;;;;;;49.83;45.73;;;4.60;99.90;;;;;;4953909;29;20453;-72
2022/11/13 08:00:36;;;;;;;49.33;45.20;;;4.80;99.90;;;;;;4953673;29;20468;-73
2022/11/13 08:03:07;;;;;;;48.00;44.10;;;4.90;99.90;;;;;;4953677;29;20455;-73
2022/11/13 08:05:35;;;;;;;52.67;47.90;;;5.00;99.90;;;;;;4953669;29;20816;-73
2022/11/13 08:08:02;;;;;;;50.27;46.17;;;5.00;99.90;;;;;;4953401;29;20491;-76
2022/11/13 08:10:30;;;;;;;48.33;44.33;;;5.10;99.90;;;;;;4953497;29;20450;-76
2022/11/13 08:13:01;;;;;;;54.20;46.67;;;5.00;99.90;;;;;;4953198;29;20493;-75
2022/11/13 08:15:29;;;;;;;51.27;46.80;;;4.60;99.90;;;;;;4953380;29;20461;-76
2022/11/13 08:17:56;;;;;;;50.10;46.30;;;4.60;99.90;;;;;;4953498;29;20482;-76
2022/11/13 08:20:23;;;;;;;48.70;44.70;;;4.70;99.90;;;;;;4953463;29;20482;-76
2022/11/13 08:22:50;;;;;;;50.47;46.50;;;4.90;99.90;;;;;;4951136;29;20986;-75
2022/11/13 08:25:18;;;;;;;50.20;45.63;;;5.00;99.90;;;;;;4953245;29;20458;-74
2022/11/13 08:27:46;;;;;;;49.93;45.93;;;4.90;99.90;;;;;;4951077;29;20497;-74
2022/11/13 08:30:15;;;;;;;48.13;44.50;;;5.00;99.90;;;;;;4952815;28;20446;-74
2022/11/13 08:32:42;;;;;;;48.47;44.77;;;5.10;99.90;;;;;;4953268;28;20451;-73
2022/11/13 08:35:09;;;;;;;51.80;46.50;;;5.20;99.90;;;;;;4953263;29;20827;-74
2022/11/13 08:37:37;;;;;;;49.77;45.77;;;5.20;99.90;;;;;;4952809;28;20898;-74
2022/11/13 08:40:04;;;;;;;52.07;47.27;;;5.10;99.90;;;;;;4952232;28;20909;-74
2022/11/13 08:42:31;;;;;;;51.37;47.33;;;4.90;99.90;;;;;;4952332;28;20453;-74
2022/11/13 08:44:59;;;;;;;50.87;46.97;;;4.80;99.90;;;;;;4952475;28;20463;-74
2022/11/13 08:47:27;;;;;;;49.90;46.10;;;4.70;99.90;;;;;;4951403;28;20486;-76
2022/11/13 08:49:54;;;;;;;48.13;44.33;;;4.60;99.90;;;;;;4952889;28;20509;-76
2022/11/13 08:52:21;;;;;;;50.60;46.50;;;4.80;99.90;;;;;;4952743;28;20449;-74
2022/11/13 08:54:48;;;;;;;52.60;48.37;;;4.90;99.90;;;;;;4950103;28;20461;-78
2022/11/13 08:57:15;;;;;;;51.87;47.77;;;5.10;99.90;;;;;;4951644;28;20962;-77
2022/11/13 08:59:41;;;;;;;50.87;47.07;;;5.10;99.90;;;;;;4951889;28;20462;-78
2022/11/13 09:02:12;;;;;;;49.80;46.20;;;5.10;99.90;;;;;;4952576;28;20459;-78
2022/11/13 09:04:39;;;;;;;50.60;47.30;;;5.30;99.90;;;;;;4952674;28;20468;-78
2022/11/13 09:07:06;;;;;;;50.90;47.27;;;5.40;99.90;;;;;;4952306;28;21045;-78
2022/11/13 09:09:33;;;;;;;50.37;46.57;;;5.50;99.90;;;;;;4952378;28;20762;-79
2022/11/13 09:12:00;;;;;;;46.87;43.77;;;5.70;99.90;;;;;;4952093;28;20582;-78
2022/11/13 09:14:27;;;;;;;46.93;43.63;;;5.50;99.90;;;;;;4952366;28;20446;-79
2022/11/13 09:16:53;;;;;;;46.50;43.30;;;5.60;99.90;;;;;;4952394;28;20450;-78
2022/11/13 09:19:22;;;;;;;45.40;42.07;;;5.50;99.90;;;;;;4951877;28;20455;-78
2022/11/13 09:21:48;;;;;;;45.20;42.20;;;5.60;99.90;;;;;;4951824;28;20458;-77
2022/11/13 09:24:15;;;;;;;45.30;42.33;;;5.80;99.90;;;;;;4951796;28;20483;-77
2022/11/13 09:26:42;;;;;;;42.37;39.40;;;5.80;99.90;;;;;;4951917;28;20461;-78
2022/11/13 09:29:09;;;;;;;43.37;40.47;;;5.70;99.90;;;;;;4952110;28;20462;-77
2022/11/13 09:31:37;;;;;;;43.23;40.20;;;5.80;99.90;;;;;;4951954;28;20526;-77
2022/11/13 09:34:04;;;;;;;44.47;41.33;;;5.80;99.90;;;;;;4951641;28;20460;-76
2022/11/13 09:36:32;;;;;;;43.50;40.33;;;6.00;99.90;;;;;;4951652;28;20460;-77
2022/11/13 09:38:59;;;;;;;39.67;37.20;;;6.10;99.90;;;;;;4951492;28;20456;-78
2022/11/13 09:41:30;;;;;;;40.57;37.93;;;6.10;99.90;;;;;;4951687;28;20518;-76
2022/11/13 09:44:02;;;;;;;36.87;34.17;;;6.10;99.90;;;;;;4951641;28;20452;-77
2022/11/13 09:46:37;;;;;;;35.73;33.00;;;5.90;99.90;;;;;;4951704;28;20454;-76
2022/11/13 09:49:15;;;;;;;37.07;34.17;;;5.90;99.90;;;;;;4951505;28;20486;-77
2022/11/13 09:51:50;;;;;;;34.53;31.87;;;6.40;99.90;;;;;;4952167;28;20945;-77
2022/11/13 09:54:19;;;;;;;31.37;29.20;;;6.70;99.90;;;;;;4955419;28;20452;-77
2022/11/13 09:56:51;;;;;;;30.43;28.27;;;7.10;99.90;;;;;;4955279;28;20825;-77
2022/11/13 09:59:25;;;;;;;31.17;28.87;;;7.10;99.90;;;;;;4955507;28;20456;-76
2022/11/13 10:02:01;;;;;;;31.50;29.20;;;7.50;99.90;;;;;;4955615;28;20473;-77
2022/11/13 10:04:45;;;;;;;26.90;25.03;;;8.00;99.90;;;;;;4955407;28;20455;-77
2022/11/13 10:07:27;;;;;;;26.80;25.00;;;7.70;99.90;;;;;;4955293;28;20487;-75
2022/11/13 10:10:12;;;;;;;24.80;23.20;;;7.70;99.90;;;;;;4955555;28;20452;-76
2022/11/13 10:12:39;;;;;;;22.70;21.10;;;7.80;99.90;;;;;;4955321;28;20499;-77
2022/11/13 10:15:09;;;;;;;23.10;21.27;;;8.30;99.90;;;;;;4955236;28;20530;-76
2022/11/13 10:17:39;;;;;;;22.70;21.20;;;8.30;99.90;;;;;;4955149;28;20448;-77
2022/11/13 10:20:14;;;;;;;22.50;21.00;;;8.40;99.90;;;;;;4955255;28;20535;-76
2022/11/13 10:22:49;;;;;;;22.87;21.47;;;8.60;99.90;;;;;;4955580;28;20551;-77
2022/11/13 10:25:18;;;;;;;21.93;20.53;;;9.90;99.90;;;;;;4954975;28;20821;-76
2022/11/13 10:27:50;;;;;;;21.00;19.70;;;11.30;99.90;;;;;;4954997;28;20524;-78
2022/11/13 10:30:19;;;;;;;20.83;19.33;;;12.60;99.90;;;;;;4955193;28;20680;-77
2022/11/13 10:32:46;;;;;;;20.07;18.67;;;14.00;99.90;;;;;;4955181;28;20463;-78
2022/11/13 10:35:44;;;;;;;20.90;19.67;;;15.30;99.90;;;;;;4955187;28;20449;-78
2022/11/13 10:38:20;;;;;;;20.40;19.20;;;15.00;98.40;;;;;;4945170;28;20460;-78
2022/11/13 10:40:48;;;;;;;21.47;20.27;;;14.90;99.40;;;;;;4955762;28;20503;-77
2022/11/13 10:43:17;;;;;;;19.80;18.60;;;14.60;98.50;;;;;;4954724;28;20855;-78
2022/11/13 10:45:54;;;;;;;21.40;20.20;;;13.70;99.90;;;;;;4957159;28;20807;-78
2022/11/13 10:48:22;;;;;;;21.40;20.10;;;13.50;99.90;;;;;;4955915;28;20582;-78
2022/11/13 10:50:57;;;;;;;17.43;16.33;;;14.50;99.90;;;;;;4957155;28;20550;-80
2022/11/13 10:53:27;;;;;;;21.07;19.97;;;14.80;98.30;;;;;;4955702;28;20459;-80
2022/11/13 10:55:56;;;;;;;19.50;18.50;;;15.30;97.30;;;;;;4956599;28;20821;-80
2022/11/13 10:58:23;;;;;;;19.67;18.67;;;15.30;97.60;;;;;;4957895;28;20474;-78
2022/11/13 11:00:51;;;;;;;20.67;19.37;;;15.10;97.30;;;;;;4955315;28;20971;-80
2022/11/13 11:03:20;;;;;;;20.13;19.03;;;15.70;96.30;;;;;;4956083;28;20540;-79
2022/11/13 11:05:55;;;;;;;20.27;19.07;;;16.70;94.20;;;;;;4956246;28;20475;-80
2022/11/13 11:08:28;;;;;;;19.27;18.27;;;17.00;92.30;;;;;;4956290;28;20483;-80
2022/11/13 11:13:43;;;;;;;18.40;17.50;;;16.80;91.90;;;;;;4955156;28;20596;-79
2022/11/13 11:16:14;;;;;;;20.27;19.03;;;17.00;92.10;;;;;;4957070;28;20460;-80
2022/11/13 11:18:45;;;;;;;19.53;18.43;;;16.70;92.20;;;;;;4955904;28;20480;-79
2022/11/13 11:21:16;;;;;;;19.60;18.50;;;17.10;91.70;;;;;;4955150;28;20449;-78
2022/11/13 11:23:50;;;;;;;20.00;18.90;;;17.00;92.70;;;;;;4954766;28;20456;-79
2022/11/13 11:26:23;;;;;;;18.83;17.83;;;17.50;90.90;;;;;;4955773;28;20441;-79
2022/11/13 11:28:59;;;;;;;20.00;18.90;;;18.40;90.10;;;;;;4955023;28;20484;-79
2022/11/13 11:31:32;;;;;;;20.37;19.17;;;18.20;88.20;;;;;;4956559;28;20459;-80
2022/11/13 11:34:04;;;;;;;19.73;18.63;;;18.40;90.20;;;;;;4955944;28;20460;-79
2022/11/13 11:36:34;;;;;;;19.67;18.67;;;18.70;99.80;;;;;;4956184;28;20455;-80
2022/11/13 11:39:15;;;;;;;18.80;17.90;;;18.70;88.40;;;;;;4957142;28;20762;-80
2022/11/13 11:41:48;;;;;;;18.33;17.33;;;19.60;86.80;;;;;;4954971;28;20449;-82
2022/11/13 11:44:22;;;;;;;19.73;18.63;;;20.20;83.00;;;;;;4956492;29;20436;-81
2022/11/13 11:46:48;;;;;;;20.23;19.13;;;19.90;83.00;;;;;;4954622;28;20455;-83
2022/11/13 11:49:15;;;;;;;18.90;17.97;;;20.00;84.30;;;;;;4956964;28;20531;-81
2022/11/13 11:51:54;;;;;;;19.70;18.60;;;21.00;80.80;;;;;;4954588;28;20464;-82
2022/11/13 11:54:36;;;;;;;18.90;17.90;;;21.30;80.20;;;;;;4955718;28;20452;-81
2022/11/13 11:57:10;;;;;;;19.07;18.00;;;21.40;78.70;;;;;;4955812;28;20465;-83
2022/11/13 11:59:59;;;;;;;21.47;20.27;;;21.80;77.80;;;;;;4957077;29;20930;-85
2022/11/13 12:03:11;;;;;;;20.13;18.70;;;21.70;75.10;;;;;;4956690;28;20976;-84
2022/11/13 12:05:47;;;;;;;19.70;18.70;;;21.30;77.40;;;;;;4956449;28;20441;-82
2022/11/13 12:08:24;;;;;;;19.07;18.07;;;21.60;76.30;;;;;;4953706;28;20514;-82
2022/11/13 12:10:59;;;;;;;19.90;18.80;;;21.80;73.50;;;;;;4954727;28;20456;-82
2022/11/13 12:13:30;;;;;;;19.20;18.00;;;20.80;74.90;;;;;;4954923;28;20483;-82
2022/11/13 12:16:06;;;;;;;20.43;19.20;;;21.00;76.10;;;;;;4955077;28;21044;-83
2022/11/13 12:18:42;;;;;;;19.60;18.47;;;21.10;76.00;;;;;;4955158;28;20444;-83
2022/11/13 12:21:21;;;;;;;19.30;18.40;;;21.10;75.90;;;;;;4956009;28;20460;-82
2022/11/13 12:24:03;;;;;;;20.10;18.90;;;20.90;74.60;;;;;;4954561;28;20448;-84
2022/11/13 12:26:38;;;;;;;20.60;19.40;;;20.00;78.10;;;;;;4954648;28;20452;-84
2022/11/13 12:29:19;;;;;;;21.37;20.13;;;19.80;79.50;;;;;;4956722;28;20484;-84
2022/11/13 12:31:57;;;;;;;18.90;17.60;;;19.80;79.50;;;;;;4955754;29;20465;-84
2022/11/13 12:34:29;;;;;;;19.93;18.87;;;19.20;80.70;;;;;;4957339;28;20452;-85
2022/11/13 12:36:58;;;;;;;19.70;18.50;;;18.00;83.20;;;;;;4955959;28;20856;-85
2022/11/13 12:39:39;;;;;;;18.90;17.80;;;17.60;85.80;;;;;;4960591;28;20452;-84
2022/11/13 12:42:19;;;;;;;19.30;17.90;;;17.00;87.30;;;;;;4958093;28;20452;-84
2022/11/13 12:44:53;;;;;;;18.93;17.73;;;16.60;90.50;;;;;;4956940;28;20456;-86
2022/11/13 12:47:20;;;;;;;19.77;18.50;;;15.60;92.50;;;;;;4958090;28;20542;-86
2022/11/13 12:49:58;;;;;;;18.10;16.90;;;14.10;95.40;;;;;;4959198;28;20495;-85
2022/11/13 12:52:24;;;;;;;19.07;17.87;;;13.50;99.20;;;;;;4958859;28;20452;-84